sensor_id;sensor_type;location;lat;lon;timestamp;P1;durP1;ratioP1;P2;durP2;ratioP2
4839;SDS011;2434;48.486;7.964;2023-04-08T00:02:25;6.07;;;4.60;;
4839;SDS011;2434;48.486;7.964;2023-04-08T00:04:54;6.13;;;4.93;;
4839;SDS011;2434;48.486;7.964;2023-04-08T00:07:22;7.07;;;4.80;;
4839;SDS011;2434;48.486;7.964;2023-04-08T00:09:50;5.67;;;5.03;;
4839;SDS011;2434;48.486;7.964;2023-04-08T00:12:19;6.43;;;4.80;;
4839;SDS011;2434;48.486;7.964;2023-04-08T00:14:47;6.60;;;4.47;;
4839;SDS011;2434;48.486;7.964;2023-04-08T00:17:15;5.00;;;4.30;;
4839;SDS011;2434;48.486;7.964;2023-04-08T00:19:44;6.40;;;4.17;;
4839;SDS011;2434;48.486;7.964;2023-04-08T00:22:13;4.07;;;3.70;;
4839;SDS011;2434;48.486;7.964;2023-04-08T00:24:41;4.80;;;4.30;;
4839;SDS011;2434;48.486;7.964;2023-04-08T00:27:09;9.10;;;4.27;;
4839;SDS011;2434;48.486;7.964;2023-04-08T00:29:37;5.33;;;3.90;;
4839;SDS011;2434;48.486;7.964;2023-04-08T00:32:06;7.40;;;3.20;;
4839;SDS011;2434;48.486;7.964;2023-04-08T00:34:34;5.13;;;3.47;;
4839;SDS011;2434;48.486;7.964;2023-04-08T00:37:03;3.43;;;2.60;;
4839;SDS011;2434;48.486;7.964;2023-04-08T00:39:32;4.97;;;3.73;;
4839;SDS011;2434;48.486;7.964;2023-04-08T00:42:00;4.93;;;3.70;;
4839;SDS011;2434;48.486;7.964;2023-04-08T00:44:28;3.77;;;3.10;;
4839;SDS011;2434;48.486;7.964;2023-04-08T00:46:56;4.60;;;3.93;;
4839;SDS011;2434;48.486;7.964;2023-04-08T00:49:25;3.97;;;3.27;;
4839;SDS011;2434;48.486;7.964;2023-04-08T00:51:53;3.27;;;2.97;;
4839;SDS011;2434;48.486;7.964;2023-04-08T00:54:23;4.70;;;3.63;;
4839;SDS011;2434;48.486;7.964;2023-04-08T00:56:51;4.43;;;3.10;;
4839;SDS011;2434;48.486;7.964;2023-04-08T00:59:20;3.93;;;3.53;;
4839;SDS011;2434;48.486;7.964;2023-04-08T01:01:50;4.60;;;3.80;;
4839;SDS011;2434;48.486;7.964;2023-04-08T01:04:26;5.53;;;4.40;;
4839;SDS011;2434;48.486;7.964;2023-04-08T01:07:00;6.20;;;4.40;;
4839;SDS011;2434;48.486;7.964;2023-04-08T01:09:37;5.80;;;4.90;;
4839;SDS011;2434;48.486;7.964;2023-04-08T01:12:09;8.73;;;5.13;;
4839;SDS011;2434;48.486;7.964;2023-04-08T01:14:41;4.97;;;4.50;;
4839;SDS011;2434;48.486;7.964;2023-04-08T01:17:11;6.10;;;4.67;;
4839;SDS011;2434;48.486;7.964;2023-04-08T01:19:39;5.27;;;4.40;;
4839;SDS011;2434;48.486;7.964;2023-04-08T01:22:11;5.00;;;4.40;;
4839;SDS011;2434;48.486;7.964;2023-04-08T01:24:50;6.13;;;4.57;;
4839;SDS011;2434;48.486;7.964;2023-04-08T01:27:29;5.27;;;3.87;;
4839;SDS011;2434;48.486;7.964;2023-04-08T01:29:59;4.90;;;4.10;;
4839;SDS011;2434;48.486;7.964;2023-04-08T01:32:29;4.80;;;4.20;;
4839;SDS011;2434;48.486;7.964;2023-04-08T01:34:59;5.30;;;4.40;;
4839;SDS011;2434;48.486;7.964;2023-04-08T01:37:29;4.97;;;4.10;;
4839;SDS011;2434;48.486;7.964;2023-04-08T01:39:58;4.30;;;3.50;;
4839;SDS011;2434;48.486;7.964;2023-04-08T01:42:30;4.47;;;3.80;;
4839;SDS011;2434;48.486;7.964;2023-04-08T01:45:00;4.27;;;3.40;;
4839;SDS011;2434;48.486;7.964;2023-04-08T01:47:29;5.37;;;3.77;;
4839;SDS011;2434;48.486;7.964;2023-04-08T01:49:58;3.67;;;3.37;;
4839;SDS011;2434;48.486;7.964;2023-04-08T01:52:27;4.97;;;3.60;;
4839;SDS011;2434;48.486;7.964;2023-04-08T01:54:56;5.70;;;3.60;;
4839;SDS011;2434;48.486;7.964;2023-04-08T01:57:26;5.57;;;3.50;;
4839;SDS011;2434;48.486;7.964;2023-04-08T02:00:01;4.00;;;3.00;;
4839;SDS011;2434;48.486;7.964;2023-04-08T02:02:44;3.80;;;3.50;;
4839;SDS011;2434;48.486;7.964;2023-04-08T02:05:14;3.73;;;3.13;;
4839;SDS011;2434;48.486;7.964;2023-04-08T02:07:43;4.13;;;3.03;;
4839;SDS011;2434;48.486;7.964;2023-04-08T02:10:12;4.17;;;3.40;;
4839;SDS011;2434;48.486;7.964;2023-04-08T02:12:40;3.87;;;2.77;;
4839;SDS011;2434;48.486;7.964;2023-04-08T02:15:11;5.10;;;3.20;;
4839;SDS011;2434;48.486;7.964;2023-04-08T02:17:42;3.90;;;3.10;;
4839;SDS011;2434;48.486;7.964;2023-04-08T02:20:15;4.30;;;3.30;;
4839;SDS011;2434;48.486;7.964;2023-04-08T02:22:46;6.30;;;4.50;;
4839;SDS011;2434;48.486;7.964;2023-04-08T02:25:18;3.30;;;3.00;;
4839;SDS011;2434;48.486;7.964;2023-04-08T02:27:50;4.30;;;3.90;;
4839;SDS011;2434;48.486;7.964;2023-04-08T02:30:20;7.37;;;3.27;;
4839;SDS011;2434;48.486;7.964;2023-04-08T02:32:49;9.90;;;3.20;;
4839;SDS011;2434;48.486;7.964;2023-04-08T02:35:20;4.90;;;3.27;;
4839;SDS011;2434;48.486;7.964;2023-04-08T02:37:50;3.63;;;3.20;;
4839;SDS011;2434;48.486;7.964;2023-04-08T02:40:22;5.93;;;3.43;;
4839;SDS011;2434;48.486;7.964;2023-04-08T02:42:55;3.83;;;3.10;;
4839;SDS011;2434;48.486;7.964;2023-04-08T02:45:27;5.97;;;3.50;;
4839;SDS011;2434;48.486;7.964;2023-04-08T02:47:58;3.27;;;2.63;;
4839;SDS011;2434;48.486;7.964;2023-04-08T02:50:27;3.57;;;2.97;;
4839;SDS011;2434;48.486;7.964;2023-04-08T02:52:55;8.53;;;3.20;;
4839;SDS011;2434;48.486;7.964;2023-04-08T02:55:23;4.93;;;3.70;;
4839;SDS011;2434;48.486;7.964;2023-04-08T02:57:51;3.80;;;3.37;;
4839;SDS011;2434;48.486;7.964;2023-04-08T03:00:19;4.00;;;3.17;;
4839;SDS011;2434;48.486;7.964;2023-04-08T03:02:49;3.70;;;3.00;;
4839;SDS011;2434;48.486;7.964;2023-04-08T03:05:18;4.60;;;3.50;;
4839;SDS011;2434;48.486;7.964;2023-04-08T03:07:47;4.30;;;3.30;;
4839;SDS011;2434;48.486;7.964;2023-04-08T03:10:15;4.00;;;3.20;;
4839;SDS011;2434;48.486;7.964;2023-04-08T03:12:43;3.67;;;2.70;;
4839;SDS011;2434;48.486;7.964;2023-04-08T03:15:11;4.00;;;3.43;;
4839;SDS011;2434;48.486;7.964;2023-04-08T03:17:39;3.47;;;2.73;;
4839;SDS011;2434;48.486;7.964;2023-04-08T03:20:09;3.80;;;3.20;;
4839;SDS011;2434;48.486;7.964;2023-04-08T03:22:38;3.80;;;3.10;;
4839;SDS011;2434;48.486;7.964;2023-04-08T03:25:06;3.87;;;3.30;;
4839;SDS011;2434;48.486;7.964;2023-04-08T03:27:34;3.40;;;3.10;;
4839;SDS011;2434;48.486;7.964;2023-04-08T03:30:03;7.60;;;4.00;;
4839;SDS011;2434;48.486;7.964;2023-04-08T03:32:32;4.30;;;3.40;;
4839;SDS011;2434;48.486;7.964;2023-04-08T03:35:00;4.50;;;3.57;;
4839;SDS011;2434;48.486;7.964;2023-04-08T03:37:29;5.30;;;4.10;;
4839;SDS011;2434;48.486;7.964;2023-04-08T03:39:57;6.00;;;4.53;;
4839;SDS011;2434;48.486;7.964;2023-04-08T03:42:26;5.20;;;4.20;;
4839;SDS011;2434;48.486;7.964;2023-04-08T03:44:54;6.90;;;4.77;;
4839;SDS011;2434;48.486;7.964;2023-04-08T03:47:22;6.47;;;5.60;;
4839;SDS011;2434;48.486;7.964;2023-04-08T03:49:51;6.17;;;4.70;;
4839;SDS011;2434;48.486;7.964;2023-04-08T03:52:19;6.27;;;4.97;;
4839;SDS011;2434;48.486;7.964;2023-04-08T03:54:49;6.60;;;5.17;;
4839;SDS011;2434;48.486;7.964;2023-04-08T03:57:17;6.17;;;5.47;;
4839;SDS011;2434;48.486;7.964;2023-04-08T03:59:45;5.37;;;4.80;;
4839;SDS011;2434;48.486;7.964;2023-04-08T04:02:13;6.90;;;4.57;;
4839;SDS011;2434;48.486;7.964;2023-04-08T04:04:42;5.80;;;4.30;;
4839;SDS011;2434;48.486;7.964;2023-04-08T04:07:10;6.97;;;5.10;;
4839;SDS011;2434;48.486;7.964;2023-04-08T04:09:38;6.23;;;5.10;;
4839;SDS011;2434;48.486;7.964;2023-04-08T04:12:07;5.23;;;4.63;;
4839;SDS011;2434;48.486;7.964;2023-04-08T04:14:35;7.43;;;4.37;;
4839;SDS011;2434;48.486;7.964;2023-04-08T04:17:04;8.80;;;4.87;;
4839;SDS011;2434;48.486;7.964;2023-04-08T04:19:32;5.07;;;4.00;;
4839;SDS011;2434;48.486;7.964;2023-04-08T04:22:00;6.10;;;4.57;;
4839;SDS011;2434;48.486;7.964;2023-04-08T04:24:28;4.90;;;4.27;;
4839;SDS011;2434;48.486;7.964;2023-04-08T04:26:56;6.57;;;4.60;;
4839;SDS011;2434;48.486;7.964;2023-04-08T04:29:25;7.07;;;4.50;;
4839;SDS011;2434;48.486;7.964;2023-04-08T04:31:54;6.97;;;4.10;;
4839;SDS011;2434;48.486;7.964;2023-04-08T04:34:22;7.87;;;4.90;;
4839;SDS011;2434;48.486;7.964;2023-04-08T04:36:50;5.83;;;4.50;;
4839;SDS011;2434;48.486;7.964;2023-04-08T04:39:18;5.60;;;4.43;;
4839;SDS011;2434;48.486;7.964;2023-04-08T04:41:46;5.20;;;4.50;;
4839;SDS011;2434;48.486;7.964;2023-04-08T04:44:14;6.90;;;5.07;;
4839;SDS011;2434;48.486;7.964;2023-04-08T04:46:44;6.07;;;4.60;;
4839;SDS011;2434;48.486;7.964;2023-04-08T04:49:12;7.37;;;5.07;;
4839;SDS011;2434;48.486;7.964;2023-04-08T04:51:40;4.37;;;3.97;;
4839;SDS011;2434;48.486;7.964;2023-04-08T04:54:08;4.40;;;3.90;;
4839;SDS011;2434;48.486;7.964;2023-04-08T04:56:37;6.43;;;4.73;;
4839;SDS011;2434;48.486;7.964;2023-04-08T04:59:05;6.07;;;4.60;;
4839;SDS011;2434;48.486;7.964;2023-04-08T05:01:34;5.63;;;4.50;;
4839;SDS011;2434;48.486;7.964;2023-04-08T05:04:03;5.70;;;4.23;;
4839;SDS011;2434;48.486;7.964;2023-04-08T05:06:32;6.20;;;4.30;;
4839;SDS011;2434;48.486;7.964;2023-04-08T05:09:00;4.70;;;4.20;;
4839;SDS011;2434;48.486;7.964;2023-04-08T05:11:28;6.03;;;4.90;;
4839;SDS011;2434;48.486;7.964;2023-04-08T05:13:56;7.10;;;6.00;;
4839;SDS011;2434;48.486;7.964;2023-04-08T05:16:25;6.20;;;5.40;;
4839;SDS011;2434;48.486;7.964;2023-04-08T05:18:53;7.20;;;5.23;;
4839;SDS011;2434;48.486;7.964;2023-04-08T05:21:23;6.77;;;4.87;;
4839;SDS011;2434;48.486;7.964;2023-04-08T05:23:51;8.10;;;5.40;;
4839;SDS011;2434;48.486;7.964;2023-04-08T05:26:20;7.43;;;5.83;;
4839;SDS011;2434;48.486;7.964;2023-04-08T05:28:48;8.20;;;5.70;;
4839;SDS011;2434;48.486;7.964;2023-04-08T05:31:17;5.97;;;4.90;;
4839;SDS011;2434;48.486;7.964;2023-04-08T05:33:46;6.50;;;5.20;;
4839;SDS011;2434;48.486;7.964;2023-04-08T05:36:14;7.43;;;5.80;;
4839;SDS011;2434;48.486;7.964;2023-04-08T05:38:44;6.50;;;5.40;;
4839;SDS011;2434;48.486;7.964;2023-04-08T05:41:12;6.83;;;5.33;;
4839;SDS011;2434;48.486;7.964;2023-04-08T05:43:40;6.10;;;5.50;;
4839;SDS011;2434;48.486;7.964;2023-04-08T05:46:09;7.90;;;5.60;;
4839;SDS011;2434;48.486;7.964;2023-04-08T05:48:37;8.30;;;5.90;;
4839;SDS011;2434;48.486;7.964;2023-04-08T05:51:05;7.50;;;6.43;;
4839;SDS011;2434;48.486;7.964;2023-04-08T05:53:33;6.33;;;5.30;;
4839;SDS011;2434;48.486;7.964;2023-04-08T05:56:03;7.70;;;6.33;;
4839;SDS011;2434;48.486;7.964;2023-04-08T05:58:32;6.77;;;6.03;;
4839;SDS011;2434;48.486;7.964;2023-04-08T06:01:00;7.90;;;6.43;;
4839;SDS011;2434;48.486;7.964;2023-04-08T06:03:29;7.17;;;5.60;;
4839;SDS011;2434;48.486;7.964;2023-04-08T06:05:57;7.53;;;5.90;;
4839;SDS011;2434;48.486;7.964;2023-04-08T06:08:25;8.97;;;7.00;;
4839;SDS011;2434;48.486;7.964;2023-04-08T06:10:53;9.70;;;7.80;;
4839;SDS011;2434;48.486;7.964;2023-04-08T06:13:23;10.33;;;7.93;;
4839;SDS011;2434;48.486;7.964;2023-04-08T06:15:51;10.53;;;7.70;;
4839;SDS011;2434;48.486;7.964;2023-04-08T06:18:19;12.47;;;9.13;;
4839;SDS011;2434;48.486;7.964;2023-04-08T06:20:47;10.33;;;8.53;;
4839;SDS011;2434;48.486;7.964;2023-04-08T06:23:16;12.13;;;7.50;;
4839;SDS011;2434;48.486;7.964;2023-04-08T06:25:44;10.60;;;7.70;;
4839;SDS011;2434;48.486;7.964;2023-04-08T06:28:13;8.07;;;6.73;;
4839;SDS011;2434;48.486;7.964;2023-04-08T06:30:42;9.00;;;7.50;;
4839;SDS011;2434;48.486;7.964;2023-04-08T06:33:11;10.80;;;7.63;;
4839;SDS011;2434;48.486;7.964;2023-04-08T06:35:39;8.43;;;6.93;;
4839;SDS011;2434;48.486;7.964;2023-04-08T06:38:07;11.30;;;7.97;;
4839;SDS011;2434;48.486;7.964;2023-04-08T06:40:37;7.90;;;6.23;;
4839;SDS011;2434;48.486;7.964;2023-04-08T06:43:05;8.07;;;6.97;;
4839;SDS011;2434;48.486;7.964;2023-04-08T06:45:37;9.30;;;6.93;;
4839;SDS011;2434;48.486;7.964;2023-04-08T06:48:06;9.63;;;7.17;;
4839;SDS011;2434;48.486;7.964;2023-04-08T06:50:35;6.90;;;5.50;;
4839;SDS011;2434;48.486;7.964;2023-04-08T06:53:03;5.40;;;4.83;;
4839;SDS011;2434;48.486;7.964;2023-04-08T06:55:31;7.67;;;5.90;;
4839;SDS011;2434;48.486;7.964;2023-04-08T06:57:59;6.57;;;5.60;;
4839;SDS011;2434;48.486;7.964;2023-04-08T07:00:28;8.00;;;5.90;;
4839;SDS011;2434;48.486;7.964;2023-04-08T07:02:56;7.40;;;5.17;;
4839;SDS011;2434;48.486;7.964;2023-04-08T07:05:25;9.20;;;7.27;;
4839;SDS011;2434;48.486;7.964;2023-04-08T07:07:53;9.37;;;7.23;;
4839;SDS011;2434;48.486;7.964;2023-04-08T07:10:22;11.03;;;8.47;;
4839;SDS011;2434;48.486;7.964;2023-04-08T07:12:50;8.70;;;7.10;;
4839;SDS011;2434;48.486;7.964;2023-04-08T07:15:18;10.90;;;7.30;;
4839;SDS011;2434;48.486;7.964;2023-04-08T07:17:46;10.40;;;8.40;;
4839;SDS011;2434;48.486;7.964;2023-04-08T07:20:14;13.60;;;10.90;;
4839;SDS011;2434;48.486;7.964;2023-04-08T07:22:45;16.03;;;10.10;;
4839;SDS011;2434;48.486;7.964;2023-04-08T07:25:13;11.23;;;8.33;;
4839;SDS011;2434;48.486;7.964;2023-04-08T07:27:41;10.87;;;8.07;;
4839;SDS011;2434;48.486;7.964;2023-04-08T07:30:09;13.67;;;9.80;;
4839;SDS011;2434;48.486;7.964;2023-04-08T07:32:38;14.53;;;11.20;;
4839;SDS011;2434;48.486;7.964;2023-04-08T07:35:06;18.23;;;13.03;;
4839;SDS011;2434;48.486;7.964;2023-04-08T07:37:34;17.60;;;11.77;;
4839;SDS011;2434;48.486;7.964;2023-04-08T07:40:04;15.27;;;12.00;;
4839;SDS011;2434;48.486;7.964;2023-04-08T07:42:33;18.37;;;12.47;;
4839;SDS011;2434;48.486;7.964;2023-04-08T07:45:03;16.57;;;11.67;;
4839;SDS011;2434;48.486;7.964;2023-04-08T07:47:31;21.40;;;14.30;;
4839;SDS011;2434;48.486;7.964;2023-04-08T07:49:59;21.20;;;14.50;;
4839;SDS011;2434;48.486;7.964;2023-04-08T07:52:28;18.77;;;12.70;;
4839;SDS011;2434;48.486;7.964;2023-04-08T07:54:57;16.70;;;11.93;;
4839;SDS011;2434;48.486;7.964;2023-04-08T07:57:27;17.57;;;13.40;;
4839;SDS011;2434;48.486;7.964;2023-04-08T07:59:55;16.53;;;12.60;;
4839;SDS011;2434;48.486;7.964;2023-04-08T08:02:23;17.20;;;12.40;;
4839;SDS011;2434;48.486;7.964;2023-04-08T08:04:52;23.10;;;16.37;;
4839;SDS011;2434;48.486;7.964;2023-04-08T08:07:20;25.37;;;15.50;;
4839;SDS011;2434;48.486;7.964;2023-04-08T08:09:48;20.67;;;15.20;;
4839;SDS011;2434;48.486;7.964;2023-04-08T08:12:16;23.33;;;16.90;;
4839;SDS011;2434;48.486;7.964;2023-04-08T08:14:45;20.47;;;14.67;;
4839;SDS011;2434;48.486;7.964;2023-04-08T08:17:13;32.67;;;18.70;;
4839;SDS011;2434;48.486;7.964;2023-04-08T08:19:42;29.73;;;19.13;;
4839;SDS011;2434;48.486;7.964;2023-04-08T08:22:10;28.30;;;20.00;;
4839;SDS011;2434;48.486;7.964;2023-04-08T08:24:38;31.27;;;20.23;;
4839;SDS011;2434;48.486;7.964;2023-04-08T08:27:08;25.97;;;16.97;;
4839;SDS011;2434;48.486;7.964;2023-04-08T08:29:37;23.80;;;18.07;;
4839;SDS011;2434;48.486;7.964;2023-04-08T08:32:06;25.97;;;18.37;;
4839;SDS011;2434;48.486;7.964;2023-04-08T08:34:34;28.47;;;17.87;;
4839;SDS011;2434;48.486;7.964;2023-04-08T08:37:03;25.60;;;18.37;;
4839;SDS011;2434;48.486;7.964;2023-04-08T08:39:31;23.80;;;18.07;;
4839;SDS011;2434;48.486;7.964;2023-04-08T08:41:59;23.07;;;16.40;;
4839;SDS011;2434;48.486;7.964;2023-04-08T08:44:28;25.07;;;17.43;;
4839;SDS011;2434;48.486;7.964;2023-04-08T08:46:57;25.23;;;17.77;;
4839;SDS011;2434;48.486;7.964;2023-04-08T08:49:26;26.03;;;18.20;;
4839;SDS011;2434;48.486;7.964;2023-04-08T08:51:55;25.90;;;18.47;;
4839;SDS011;2434;48.486;7.964;2023-04-08T08:54:24;26.63;;;17.60;;
4839;SDS011;2434;48.486;7.964;2023-04-08T08:56:52;21.33;;;15.50;;
4839;SDS011;2434;48.486;7.964;2023-04-08T08:59:21;24.43;;;17.53;;
4839;SDS011;2434;48.486;7.964;2023-04-08T09:01:49;20.67;;;15.00;;
4839;SDS011;2434;48.486;7.964;2023-04-08T09:04:18;24.23;;;16.30;;
4839;SDS011;2434;48.486;7.964;2023-04-08T09:07:03;26.00;;;16.90;;
4839;SDS011;2434;48.486;7.964;2023-04-08T09:09:46;25.37;;;17.13;;
4839;SDS011;2434;48.486;7.964;2023-04-08T09:12:15;23.77;;;15.87;;
4839;SDS011;2434;48.486;7.964;2023-04-08T09:14:43;19.60;;;16.10;;
4839;SDS011;2434;48.486;7.964;2023-04-08T09:17:11;23.10;;;15.23;;
4839;SDS011;2434;48.486;7.964;2023-04-08T09:19:40;23.10;;;16.90;;
4839;SDS011;2434;48.486;7.964;2023-04-08T09:22:41;21.97;;;15.13;;
4839;SDS011;2434;48.486;7.964;2023-04-08T09:25:23;21.27;;;15.10;;
4839;SDS011;2434;48.486;7.964;2023-04-08T09:27:52;20.53;;;14.83;;
4839;SDS011;2434;48.486;7.964;2023-04-08T09:30:21;21.67;;;15.80;;
4839;SDS011;2434;48.486;7.964;2023-04-08T09:32:50;23.80;;;16.50;;
4839;SDS011;2434;48.486;7.964;2023-04-08T09:35:20;21.93;;;15.57;;
4839;SDS011;2434;48.486;7.964;2023-04-08T09:37:49;17.03;;;12.90;;
4839;SDS011;2434;48.486;7.964;2023-04-08T09:40:18;18.77;;;13.87;;
4839;SDS011;2434;48.486;7.964;2023-04-08T09:42:47;20.47;;;13.10;;
4839;SDS011;2434;48.486;7.964;2023-04-08T09:45:17;17.90;;;14.40;;
4839;SDS011;2434;48.486;7.964;2023-04-08T09:47:55;15.47;;;11.07;;
4839;SDS011;2434;48.486;7.964;2023-04-08T09:50:25;13.90;;;9.90;;
4839;SDS011;2434;48.486;7.964;2023-04-08T09:52:59;15.60;;;11.90;;
4839;SDS011;2434;48.486;7.964;2023-04-08T09:55:29;18.20;;;13.23;;
4839;SDS011;2434;48.486;7.964;2023-04-08T09:58:03;17.97;;;13.60;;
4839;SDS011;2434;48.486;7.964;2023-04-08T10:00:36;16.80;;;13.23;;
4839;SDS011;2434;48.486;7.964;2023-04-08T10:03:09;20.87;;;14.43;;
4839;SDS011;2434;48.486;7.964;2023-04-08T10:05:43;20.20;;;13.43;;
4839;SDS011;2434;48.486;7.964;2023-04-08T10:08:13;15.03;;;11.83;;
4839;SDS011;2434;48.486;7.964;2023-04-08T10:10:42;15.70;;;11.80;;
4839;SDS011;2434;48.486;7.964;2023-04-08T10:13:13;17.90;;;13.30;;
4839;SDS011;2434;48.486;7.964;2023-04-08T10:15:42;19.97;;;13.63;;
4839;SDS011;2434;48.486;7.964;2023-04-08T10:18:31;23.77;;;15.30;;
4839;SDS011;2434;48.486;7.964;2023-04-08T10:20:59;19.23;;;14.00;;
4839;SDS011;2434;48.486;7.964;2023-04-08T10:26:32;23.73;;;15.13;;
4839;SDS011;2434;48.486;7.964;2023-04-08T10:31:59;19.20;;;14.67;;
4839;SDS011;2434;48.486;7.964;2023-04-08T10:34:28;20.87;;;15.40;;
4839;SDS011;2434;48.486;7.964;2023-04-08T10:36:56;23.03;;;15.20;;
4839;SDS011;2434;48.486;7.964;2023-04-08T10:39:30;21.33;;;15.77;;
4839;SDS011;2434;48.486;7.964;2023-04-08T10:42:00;20.03;;;15.30;;
4839;SDS011;2434;48.486;7.964;2023-04-08T10:44:29;22.20;;;14.80;;
4839;SDS011;2434;48.486;7.964;2023-04-08T10:46:57;20.20;;;12.90;;
4839;SDS011;2434;48.486;7.964;2023-04-08T10:49:31;14.17;;;12.53;;
4839;SDS011;2434;48.486;7.964;2023-04-08T10:52:00;15.13;;;12.70;;
4839;SDS011;2434;48.486;7.964;2023-04-08T10:54:34;19.13;;;13.73;;
4839;SDS011;2434;48.486;7.964;2023-04-08T10:57:04;14.00;;;12.17;;
4839;SDS011;2434;48.486;7.964;2023-04-08T10:59:33;17.83;;;12.97;;
4839;SDS011;2434;48.486;7.964;2023-04-08T11:02:02;16.10;;;13.57;;
4839;SDS011;2434;48.486;7.964;2023-04-08T11:04:30;18.23;;;13.30;;
4839;SDS011;2434;48.486;7.964;2023-04-08T11:06:59;17.30;;;12.20;;
4839;SDS011;2434;48.486;7.964;2023-04-08T11:09:32;16.23;;;12.27;;
4839;SDS011;2434;48.486;7.964;2023-04-08T11:12:02;17.90;;;13.67;;
4839;SDS011;2434;48.486;7.964;2023-04-08T11:14:31;19.20;;;14.20;;
4839;SDS011;2434;48.486;7.964;2023-04-08T11:16:59;24.20;;;16.23;;
4839;SDS011;2434;48.486;7.964;2023-04-08T11:19:27;41.80;;;28.20;;
4839;SDS011;2434;48.486;7.964;2023-04-08T11:21:56;19.73;;;15.67;;
4839;SDS011;2434;48.486;7.964;2023-04-08T11:24:25;16.40;;;13.57;;
4839;SDS011;2434;48.486;7.964;2023-04-08T11:26:55;24.40;;;17.70;;
4839;SDS011;2434;48.486;7.964;2023-04-08T11:29:23;24.57;;;16.03;;
4839;SDS011;2434;48.486;7.964;2023-04-08T11:31:51;18.00;;;13.03;;
4839;SDS011;2434;48.486;7.964;2023-04-08T11:34:20;16.00;;;13.03;;
4839;SDS011;2434;48.486;7.964;2023-04-08T11:36:50;15.13;;;12.20;;
4839;SDS011;2434;48.486;7.964;2023-04-08T11:39:21;16.20;;;12.00;;
4839;SDS011;2434;48.486;7.964;2023-04-08T11:41:49;16.30;;;12.37;;
4839;SDS011;2434;48.486;7.964;2023-04-08T11:44:20;15.37;;;12.63;;
4839;SDS011;2434;48.486;7.964;2023-04-08T11:46:57;18.73;;;11.97;;
4839;SDS011;2434;48.486;7.964;2023-04-08T11:49:27;17.43;;;12.20;;
4839;SDS011;2434;48.486;7.964;2023-04-08T11:52:11;15.50;;;12.20;;
4839;SDS011;2434;48.486;7.964;2023-04-08T11:54:40;18.20;;;13.53;;
4839;SDS011;2434;48.486;7.964;2023-04-08T11:57:09;19.10;;;12.17;;
4839;SDS011;2434;48.486;7.964;2023-04-08T11:59:38;18.53;;;11.93;;
4839;SDS011;2434;48.486;7.964;2023-04-08T12:02:06;16.40;;;12.20;;
4839;SDS011;2434;48.486;7.964;2023-04-08T12:04:35;14.77;;;11.90;;
4839;SDS011;2434;48.486;7.964;2023-04-08T12:07:03;13.33;;;10.90;;
4839;SDS011;2434;48.486;7.964;2023-04-08T12:09:31;13.50;;;11.70;;
4839;SDS011;2434;48.486;7.964;2023-04-08T12:12:00;17.97;;;12.80;;
4839;SDS011;2434;48.486;7.964;2023-04-08T12:14:28;12.70;;;10.93;;
4839;SDS011;2434;48.486;7.964;2023-04-08T12:16:58;15.47;;;11.60;;
4839;SDS011;2434;48.486;7.964;2023-04-08T12:19:26;15.87;;;12.20;;
4839;SDS011;2434;48.486;7.964;2023-04-08T12:21:56;14.77;;;12.43;;
4839;SDS011;2434;48.486;7.964;2023-04-08T12:24:24;14.20;;;11.70;;
4839;SDS011;2434;48.486;7.964;2023-04-08T12:26:52;14.40;;;10.73;;
4839;SDS011;2434;48.486;7.964;2023-04-08T12:29:21;12.07;;;10.80;;
4839;SDS011;2434;48.486;7.964;2023-04-08T12:31:49;15.23;;;11.63;;
4839;SDS011;2434;48.486;7.964;2023-04-08T12:34:20;13.90;;;10.73;;
4839;SDS011;2434;48.486;7.964;2023-04-08T12:36:48;12.83;;;10.33;;
4839;SDS011;2434;48.486;7.964;2023-04-08T12:39:16;17.67;;;11.70;;
4839;SDS011;2434;48.486;7.964;2023-04-08T12:41:44;17.53;;;11.00;;
4839;SDS011;2434;48.486;7.964;2023-04-08T12:44:12;14.60;;;12.50;;
4839;SDS011;2434;48.486;7.964;2023-04-08T12:46:40;12.70;;;9.97;;
4839;SDS011;2434;48.486;7.964;2023-04-08T12:49:09;20.00;;;12.23;;
4839;SDS011;2434;48.486;7.964;2023-04-08T12:51:38;14.73;;;12.13;;
4839;SDS011;2434;48.486;7.964;2023-04-08T12:54:07;18.23;;;12.13;;
4839;SDS011;2434;48.486;7.964;2023-04-08T12:56:35;14.20;;;11.73;;
4839;SDS011;2434;48.486;7.964;2023-04-08T12:59:04;11.63;;;10.43;;
4839;SDS011;2434;48.486;7.964;2023-04-08T13:01:32;15.83;;;10.10;;
4839;SDS011;2434;48.486;7.964;2023-04-08T13:04:01;13.63;;;10.47;;
4839;SDS011;2434;48.486;7.964;2023-04-08T13:06:29;15.70;;;10.77;;
4839;SDS011;2434;48.486;7.964;2023-04-08T13:08:58;12.40;;;9.83;;
4839;SDS011;2434;48.486;7.964;2023-04-08T13:11:27;13.07;;;11.30;;
4839;SDS011;2434;48.486;7.964;2023-04-08T13:13:55;16.03;;;11.47;;
4839;SDS011;2434;48.486;7.964;2023-04-08T13:16:23;15.60;;;11.27;;
4839;SDS011;2434;48.486;7.964;2023-04-08T13:18:52;12.03;;;10.70;;
4839;SDS011;2434;48.486;7.964;2023-04-08T13:21:20;13.57;;;10.47;;
4839;SDS011;2434;48.486;7.964;2023-04-08T13:23:49;14.37;;;11.33;;
4839;SDS011;2434;48.486;7.964;2023-04-08T13:26:18;16.90;;;12.23;;
4839;SDS011;2434;48.486;7.964;2023-04-08T13:28:46;13.47;;;11.60;;
4839;SDS011;2434;48.486;7.964;2023-04-08T13:31:23;14.47;;;12.43;;
4839;SDS011;2434;48.486;7.964;2023-04-08T13:33:51;13.73;;;12.40;;
4839;SDS011;2434;48.486;7.964;2023-04-08T13:36:23;16.53;;;12.50;;
4839;SDS011;2434;48.486;7.964;2023-04-08T13:38:53;13.77;;;12.03;;
4839;SDS011;2434;48.486;7.964;2023-04-08T13:41:23;18.43;;;13.60;;
4839;SDS011;2434;48.486;7.964;2023-04-08T13:43:53;15.63;;;12.27;;
4839;SDS011;2434;48.486;7.964;2023-04-08T13:46:21;14.93;;;11.63;;
4839;SDS011;2434;48.486;7.964;2023-04-08T13:48:50;13.77;;;11.57;;
4839;SDS011;2434;48.486;7.964;2023-04-08T13:51:19;13.87;;;12.47;;
4839;SDS011;2434;48.486;7.964;2023-04-08T13:53:47;15.63;;;13.23;;
4839;SDS011;2434;48.486;7.964;2023-04-08T13:56:15;15.77;;;13.53;;
4839;SDS011;2434;48.486;7.964;2023-04-08T13:58:44;16.63;;;13.27;;
4839;SDS011;2434;48.486;7.964;2023-04-08T14:01:20;15.90;;;13.67;;
4839;SDS011;2434;48.486;7.964;2023-04-08T14:03:48;16.60;;;13.47;;
4839;SDS011;2434;48.486;7.964;2023-04-08T14:06:17;15.03;;;12.73;;
4839;SDS011;2434;48.486;7.964;2023-04-08T14:08:45;15.93;;;14.20;;
4839;SDS011;2434;48.486;7.964;2023-04-08T14:11:13;17.80;;;13.03;;
4839;SDS011;2434;48.486;7.964;2023-04-08T14:13:41;16.70;;;13.10;;
4839;SDS011;2434;48.486;7.964;2023-04-08T14:16:10;16.00;;;12.53;;
4839;SDS011;2434;48.486;7.964;2023-04-08T14:18:39;24.70;;;12.33;;
4839;SDS011;2434;48.486;7.964;2023-04-08T14:21:07;17.03;;;11.57;;
4839;SDS011;2434;48.486;7.964;2023-04-08T14:23:35;18.47;;;13.67;;
4839;SDS011;2434;48.486;7.964;2023-04-08T14:26:03;16.40;;;13.37;;
4839;SDS011;2434;48.486;7.964;2023-04-08T14:28:32;17.07;;;14.07;;
4839;SDS011;2434;48.486;7.964;2023-04-08T14:31:00;17.07;;;13.13;;
4839;SDS011;2434;48.486;7.964;2023-04-08T14:33:30;15.67;;;13.40;;
4839;SDS011;2434;48.486;7.964;2023-04-08T14:35:59;15.77;;;13.13;;
4839;SDS011;2434;48.486;7.964;2023-04-08T14:38:27;15.00;;;12.47;;
4839;SDS011;2434;48.486;7.964;2023-04-08T14:40:55;17.10;;;12.97;;
4839;SDS011;2434;48.486;7.964;2023-04-08T14:43:23;16.23;;;12.83;;
4839;SDS011;2434;48.486;7.964;2023-04-08T14:45:51;15.83;;;12.43;;
4839;SDS011;2434;48.486;7.964;2023-04-08T14:48:20;16.73;;;13.80;;
4839;SDS011;2434;48.486;7.964;2023-04-08T14:50:52;16.43;;;12.97;;
4839;SDS011;2434;48.486;7.964;2023-04-08T14:53:20;15.30;;;13.43;;
4839;SDS011;2434;48.486;7.964;2023-04-08T14:55:48;15.17;;;12.70;;
4839;SDS011;2434;48.486;7.964;2023-04-08T14:58:16;15.07;;;12.50;;
4839;SDS011;2434;48.486;7.964;2023-04-08T15:00:45;16.60;;;12.93;;
4839;SDS011;2434;48.486;7.964;2023-04-08T15:03:14;17.17;;;12.23;;
4839;SDS011;2434;48.486;7.964;2023-04-08T15:05:55;16.73;;;14.07;;
4839;SDS011;2434;48.486;7.964;2023-04-08T15:08:24;20.77;;;13.73;;
4839;SDS011;2434;48.486;7.964;2023-04-08T15:10:52;18.30;;;13.70;;
4839;SDS011;2434;48.486;7.964;2023-04-08T15:13:20;16.77;;;13.60;;
4839;SDS011;2434;48.486;7.964;2023-04-08T15:15:49;18.87;;;13.60;;
4839;SDS011;2434;48.486;7.964;2023-04-08T15:18:17;17.87;;;13.10;;
4839;SDS011;2434;48.486;7.964;2023-04-08T15:20:45;15.57;;;12.80;;